createdAt,value
2022-12-15T00:01:40.116Z,10.25
2022-12-15T00:04:21.910Z,9.95
2022-12-15T00:07:03.777Z,9.07
2022-12-15T00:09:45.536Z,10.05
2022-12-15T00:12:27.244Z,8.88
2022-12-15T00:15:08.944Z,9.73
2022-12-15T00:17:50.703Z,7.22
2022-12-15T00:20:32.516Z,9.95
2022-12-15T00:23:21.458Z,9.32
2022-12-15T00:26:03.164Z,9.23
2022-12-15T00:28:44.937Z,8.27
2022-12-15T00:31:26.687Z,8.02
2022-12-15T00:34:08.608Z,8.95
2022-12-15T00:36:50.884Z,9.23
2022-12-15T00:39:20.502Z,8.63
2022-12-15T00:41:49.709Z,8.48
2022-12-15T00:44:20.722Z,9.65
2022-12-15T00:46:56.833Z,8.35
2022-12-15T00:49:39.424Z,10.05
2022-12-15T00:55:02.748Z,8.45
2022-12-15T00:57:44.518Z,9.57
2022-12-15T01:00:27.603Z,7.88
2022-12-15T01:03:09.554Z,8.45
2022-12-15T01:05:51.430Z,9.20
2022-12-15T01:08:33.223Z,10.32
2022-12-15T01:11:15.955Z,10.43
2022-12-15T01:13:57.648Z,9.80
2022-12-15T01:16:39.439Z,10.27
2022-12-15T01:19:23.246Z,8.15
2022-12-15T01:21:55.161Z,8.98
2022-12-15T01:24:24.507Z,7.97
2022-12-15T01:26:53.797Z,8.25
2022-12-15T01:29:25.959Z,9.05
2022-12-15T01:31:55.524Z,8.90
2022-12-15T01:34:24.798Z,8.02
2022-12-15T01:36:54.065Z,9.63
2022-12-15T01:39:46.439Z,7.38
2022-12-15T01:42:13.427Z,8.32
2022-12-15T01:44:42.646Z,9.98
2022-12-15T01:47:14.960Z,9.18
2022-12-15T01:52:17.607Z,7.32
2022-12-15T01:54:50.934Z,7.82
2022-12-15T01:57:21.713Z,8.13
2022-12-15T01:59:53.553Z,7.30
2022-12-15T02:02:25.078Z,7.90
2022-12-15T02:04:56.658Z,10.93
2022-12-15T02:07:26.291Z,7.97
2022-12-15T02:09:57.620Z,9.05
2022-12-15T02:12:45.448Z,8.60
2022-12-15T02:15:26.995Z,7.53
2022-12-15T02:18:05.422Z,8.00
2022-12-15T02:20:47.240Z,9.50
2022-12-15T02:23:16.436Z,8.50
2022-12-15T02:25:50.762Z,9.52
2022-12-15T02:28:33.204Z,9.15
2022-12-15T02:31:23.439Z,7.57
2022-12-15T02:34:00.905Z,8.10
2022-12-15T02:36:32.286Z,9.20
2022-12-15T02:39:01.580Z,8.20
2022-12-15T02:41:39.077Z,8.60
2022-12-15T02:44:13.365Z,8.43
2022-12-15T02:46:48.500Z,7.55
2022-12-15T02:49:30.681Z,8.73
2022-12-15T02:52:18.874Z,8.68
2022-12-15T02:55:04.359Z,9.18
2022-12-15T02:57:45.787Z,10.50
2022-12-15T03:00:15.580Z,7.90
2022-12-15T03:02:47.591Z,9.43
2022-12-15T03:05:17.417Z,9.77
2022-12-15T03:07:49.659Z,9.73
2022-12-15T03:10:20.564Z,9.00
2022-12-15T03:12:51.095Z,10.60
2022-12-15T03:15:21.302Z,10.13
2022-12-15T03:17:52.531Z,10.45
2022-12-15T03:20:21.879Z,8.90
2022-12-15T03:22:51.211Z,10.00
2022-12-15T03:25:22.356Z,8.68
2022-12-15T03:27:51.901Z,9.55
2022-12-15T03:30:21.278Z,10.13
2022-12-15T03:32:50.695Z,10.40
2022-12-15T03:35:19.922Z,9.48
2022-12-15T03:37:52.246Z,10.30
2022-12-15T03:42:51.042Z,8.57
2022-12-15T03:45:21.589Z,11.02
2022-12-15T03:47:51.206Z,10.02
2022-12-15T03:50:22.368Z,9.15
2022-12-15T03:52:59.379Z,9.70
2022-12-15T03:55:29.166Z,11.15
2022-12-15T03:57:59.311Z,11.15
2022-12-15T04:00:28.845Z,9.90
2022-12-15T04:02:58.280Z,11.80
2022-12-15T04:05:28.501Z,11.65
2022-12-15T04:07:58.443Z,11.05
2022-12-15T04:10:33.918Z,12.40
2022-12-15T04:13:04.883Z,10.50
2022-12-15T04:15:34.399Z,11.60
2022-12-15T04:18:04.622Z,10.60
2022-12-15T04:20:31.384Z,11.75
2022-12-15T04:23:00.708Z,11.50
2022-12-15T04:25:42.887Z,11.20
2022-12-15T04:28:25.759Z,10.85
2022-12-15T04:31:12.650Z,10.07
2022-12-15T04:33:56.279Z,10.30
2022-12-15T04:36:38.077Z,10.13
2022-12-15T04:39:21.194Z,9.80
2022-12-15T04:42:02.891Z,9.77
2022-12-15T04:44:45.179Z,12.43
2022-12-15T04:47:31.912Z,9.30
2022-12-15T04:50:13.617Z,9.20
2022-12-15T04:52:55.722Z,10.05
2022-12-15T04:55:37.411Z,10.40
2022-12-15T04:58:20.043Z,10.65
2022-12-15T05:01:01.842Z,10.20
2022-12-15T05:03:43.595Z,11.02
2022-12-15T05:06:25.337Z,10.95
2022-12-15T05:09:07.025Z,12.40
2022-12-15T05:11:48.733Z,12.60
2022-12-15T05:14:30.429Z,11.45
2022-12-15T05:17:12.139Z,13.57
2022-12-15T05:19:53.889Z,10.95
2022-12-15T05:22:35.619Z,12.95
2022-12-15T05:25:17.316Z,10.82
2022-12-15T05:27:59.050Z,11.70
2022-12-15T05:30:40.782Z,11.88
2022-12-15T05:33:10.063Z,12.15
2022-12-15T05:35:39.310Z,12.20
2022-12-15T05:38:08.827Z,11.90
2022-12-15T05:40:38.100Z,9.98
2022-12-15T05:43:07.319Z,12.38
2022-12-15T05:45:36.994Z,13.40
2022-12-15T05:48:06.273Z,11.93
2022-12-15T05:50:35.525Z,10.68
2022-12-15T05:53:08.722Z,12.07
2022-12-15T05:55:37.966Z,11.88
2022-12-15T05:58:07.204Z,13.30
2022-12-15T06:00:36.701Z,12.48
2022-12-15T06:03:06.055Z,12.98
2022-12-15T06:05:35.335Z,10.85
2022-12-15T06:08:04.613Z,12.82
2022-12-15T06:10:33.886Z,12.38
2022-12-15T06:13:03.165Z,10.82
2022-12-15T06:15:32.412Z,11.65
2022-12-15T06:18:01.628Z,12.60
2022-12-15T06:20:30.902Z,13.05
2022-12-15T06:23:00.343Z,12.32
2022-12-15T06:25:29.656Z,12.43
2022-12-15T06:28:01.858Z,13.98
2022-12-15T06:30:31.364Z,15.00
2022-12-15T06:33:00.567Z,12.40
2022-12-15T06:35:29.795Z,14.52
2022-12-15T06:37:59.012Z,14.45
2022-12-15T06:40:30.120Z,14.25
2022-12-15T06:43:01.455Z,12.85
2022-12-15T06:45:30.681Z,13.07
2022-12-15T06:48:01.653Z,16.85
2022-12-15T06:50:31.260Z,14.40
2022-12-15T06:53:01.371Z,13.32
2022-12-15T06:55:30.629Z,13.25
2022-12-15T06:57:59.875Z,13.10
2022-12-15T07:00:29.521Z,14.68
2022-12-15T07:02:58.949Z,13.90
2022-12-15T07:05:28.470Z,13.32
2022-12-15T07:07:57.676Z,13.52
2022-12-15T07:10:27.160Z,13.90
2022-12-15T07:12:58.697Z,12.80
2022-12-15T07:15:27.974Z,13.38
2022-12-15T07:17:57.515Z,12.93
2022-12-15T07:20:28.946Z,13.73
2022-12-15T07:22:58.601Z,12.63
2022-12-15T07:25:27.908Z,11.93
2022-12-15T07:27:57.199Z,13.98
2022-12-15T07:30:26.419Z,12.55
2022-12-15T07:32:56.186Z,13.35
2022-12-15T07:35:25.449Z,14.68
2022-12-15T07:37:54.718Z,12.80
2022-12-15T07:40:23.943Z,13.52
2022-12-15T07:42:53.542Z,12.32
2022-12-15T07:45:23.056Z,15.00
2022-12-15T07:47:53.645Z,13.82
2022-12-15T07:50:22.912Z,13.73
2022-12-15T07:52:53.501Z,15.32
2022-12-15T07:55:43.332Z,16.52
2022-12-15T07:58:12.055Z,13.65
2022-12-15T08:00:46.857Z,12.70
2022-12-15T08:03:18.075Z,13.30
2022-12-15T08:05:47.870Z,16.05
2022-12-15T08:08:18.601Z,14.00
2022-12-15T08:10:47.918Z,13.48
2022-12-15T08:13:31.625Z,13.40
2022-12-15T08:16:06.797Z,14.73
2022-12-15T08:18:36.158Z,12.20
2022-12-15T08:21:06.578Z,14.38
2022-12-15T08:23:35.833Z,14.20
2022-12-15T08:26:13.069Z,13.48
2022-12-15T08:28:43.044Z,14.27
2022-12-15T08:31:14.304Z,17.23
2022-12-15T08:33:43.779Z,17.00
2022-12-15T08:36:14.072Z,15.85
2022-12-15T08:38:44.509Z,17.35
2022-12-15T08:41:15.094Z,17.35
2022-12-15T08:43:48.685Z,16.90
2022-12-15T08:46:19.991Z,16.70
2022-12-15T08:48:49.597Z,15.10
2022-12-15T08:51:19.608Z,17.80
2022-12-15T08:53:49.595Z,15.70
2022-12-15T08:56:20.440Z,14.77
2022-12-15T08:58:50.417Z,15.90
2022-12-15T09:01:23.972Z,14.20
2022-12-15T09:03:54.369Z,14.48
2022-12-15T09:06:25.405Z,17.23
2022-12-15T09:08:59.237Z,17.27
2022-12-15T09:11:28.913Z,15.18
2022-12-15T09:13:58.248Z,16.35
2022-12-15T09:16:28.201Z,15.38
2022-12-15T09:18:58.490Z,16.55
2022-12-15T09:21:28.754Z,15.93
2022-12-15T09:24:01.888Z,15.05
2022-12-15T09:26:32.768Z,16.25
2022-12-15T09:29:02.247Z,14.63
2022-12-15T09:31:32.911Z,17.02
2022-12-15T09:34:02.994Z,17.17
2022-12-15T09:36:33.499Z,18.88
2022-12-15T09:39:04.300Z,15.32
2022-12-15T09:41:35.196Z,16.85
2022-12-15T09:44:07.516Z,16.75
2022-12-15T09:46:49.872Z,17.55
2022-12-15T09:49:26.761Z,18.13
2022-12-15T09:52:07.327Z,14.73
2022-12-15T09:54:41.888Z,17.52
2022-12-15T09:57:19.566Z,16.87
2022-12-15T09:59:58.613Z,16.73
2022-12-15T10:02:51.694Z,17.50
2022-12-15T10:06:07.170Z,17.90
2022-12-15T10:08:31.999Z,16.38
2022-12-15T10:11:08.852Z,16.38
2022-12-15T10:13:45.421Z,17.67
2022-12-15T10:16:27.263Z,18.10
2022-12-15T10:21:50.435Z,18.33
2022-12-15T10:24:44.551Z,19.67
2022-12-15T10:27:17.217Z,18.13
2022-12-15T10:29:54.358Z,17.83
2022-12-15T10:32:40.942Z,18.58
2022-12-15T10:35:17.754Z,19.17
2022-12-15T10:37:47.280Z,17.40
2022-12-15T10:40:42.418Z,18.75
2022-12-15T10:43:27.060Z,18.13
2022-12-15T10:46:05.441Z,18.85
2022-12-15T10:48:34.717Z,18.67
2022-12-15T10:51:16.318Z,18.13
2022-12-15T10:53:54.216Z,18.52
2022-12-15T10:56:32.486Z,18.92
2022-12-15T10:59:04.784Z,19.35
2022-12-15T11:01:36.008Z,17.58
2022-12-15T11:04:05.538Z,18.52
2022-12-15T11:06:37.029Z,18.02
2022-12-15T11:09:32.792Z,21.77
2022-12-15T11:12:14.522Z,18.60
2022-12-15T11:14:45.838Z,20.37
2022-12-15T11:17:25.312Z,17.00
2022-12-15T11:20:06.361Z,18.02
2022-12-15T11:22:56.542Z,16.73
2022-12-15T11:25:32.098Z,16.50
2022-12-15T11:28:02.779Z,18.00
2022-12-15T11:30:34.084Z,19.90
2022-12-15T11:33:04.117Z,15.85
2022-12-15T11:35:48.925Z,18.77
2022-12-15T11:38:23.795Z,16.45
2022-12-15T11:40:53.260Z,20.40
2022-12-15T11:43:35.614Z,17.75
2022-12-15T11:46:21.064Z,18.13
2022-12-15T11:48:50.339Z,19.27
2022-12-15T11:51:23.726Z,18.63
2022-12-15T11:53:59.329Z,18.17
2022-12-15T11:56:47.619Z,17.35
2022-12-15T12:02:02.740Z,16.92
2022-12-15T12:04:40.867Z,17.45
2022-12-15T12:07:25.303Z,17.05
2022-12-15T12:10:13.405Z,16.38
2022-12-15T12:15:47.661Z,16.95
2022-12-15T12:18:24.535Z,17.20
2022-12-15T12:21:03.649Z,16.73
2022-12-15T12:23:47.903Z,18.00
2022-12-15T12:26:36.512Z,16.30
2022-12-15T12:29:14.716Z,16.48
2022-12-15T12:32:04.232Z,17.08
2022-12-15T12:34:52.948Z,16.92
2022-12-15T12:37:58.107Z,17.88
2022-12-15T12:40:33.548Z,15.50
2022-12-15T12:43:04.393Z,16.38
2022-12-15T12:45:44.626Z,16.70
2022-12-15T12:48:25.057Z,16.83
2022-12-15T12:50:55.737Z,16.70
2022-12-15T12:53:27.626Z,16.00
2022-12-15T12:55:56.896Z,14.77
2022-12-15T12:58:45.440Z,16.08
2022-12-15T13:01:21.404Z,13.27
2022-12-15T13:04:07.334Z,16.95
2022-12-15T13:06:36.587Z,16.75
2022-12-15T13:09:20.951Z,15.85
2022-12-15T13:11:58.251Z,15.00
2022-12-15T13:14:32.305Z,15.02
2022-12-15T13:17:27.171Z,16.02
2022-12-15T13:19:59.837Z,14.80
2022-12-15T13:22:41.869Z,16.08
2022-12-15T13:25:29.548Z,14.95
2022-12-15T13:28:01.573Z,15.40
2022-12-15T13:30:30.856Z,14.73
2022-12-15T13:33:19.062Z,16.23
2022-12-15T13:35:48.980Z,16.55
2022-12-15T13:38:21.351Z,17.80
2022-12-15T13:40:54.130Z,15.68
2022-12-15T13:43:29.534Z,16.00
2022-12-15T13:46:02.346Z,18.25
2022-12-15T13:48:36.782Z,16.30
2022-12-15T13:51:15.297Z,16.55
2022-12-15T13:53:51.714Z,16.13
2022-12-15T13:56:29.270Z,15.07
2022-12-15T13:59:07.968Z,15.57
2022-12-15T14:01:37.372Z,16.40
2022-12-15T14:04:08.371Z,16.30
2022-12-15T14:06:39.737Z,15.07
2022-12-15T14:09:09.433Z,17.50
2022-12-15T14:11:52.888Z,16.80
2022-12-15T14:14:25.687Z,18.30
2022-12-15T14:16:56.314Z,16.23
2022-12-15T14:19:25.634Z,18.00
2022-12-15T14:22:03.902Z,17.75
2022-12-15T14:24:39.686Z,17.90
2022-12-15T14:27:09.598Z,17.38
2022-12-15T14:29:38.841Z,17.40
2022-12-15T14:32:08.304Z,16.67
2022-12-15T14:34:41.987Z,18.23
2022-12-15T14:37:14.876Z,16.30
2022-12-15T14:39:50.366Z,16.98
2022-12-15T14:42:25.994Z,17.88
2022-12-15T14:48:06.145Z,16.70
2022-12-15T14:50:40.609Z,18.10
2022-12-15T14:53:16.648Z,18.80
2022-12-15T14:55:46.396Z,19.38
2022-12-15T14:58:34.901Z,16.95
2022-12-15T15:01:07.331Z,18.63
2022-12-15T15:03:04.321Z,19.95
2022-12-15T15:03:06.025Z,19.73
2022-12-15T15:03:16.257Z,17.50
2022-12-15T15:03:40.832Z,17.45
2022-12-15T15:06:19.585Z,17.55
2022-12-15T15:08:52.908Z,18.55
2022-12-15T15:11:29.784Z,18.08
2022-12-15T15:14:00.685Z,19.23
2022-12-15T15:16:30.181Z,18.83
2022-12-15T15:18:59.915Z,18.23
2022-12-15T15:21:31.062Z,17.65
2022-12-15T15:24:03.113Z,18.23
2022-12-15T15:26:33.297Z,18.55
2022-12-15T15:29:02.907Z,18.88
2022-12-15T15:31:41.908Z,19.20
2022-12-15T15:34:11.636Z,17.05
2022-12-15T15:36:41.547Z,19.52
2022-12-15T15:39:20.166Z,19.52
2022-12-15T15:41:51.404Z,20.73
2022-12-15T15:44:22.496Z,19.67
2022-12-15T15:46:55.942Z,21.13
2022-12-15T15:49:25.719Z,20.95
2022-12-15T15:51:54.973Z,23.35
2022-12-15T15:54:25.644Z,19.55
2022-12-15T15:56:54.863Z,20.70
2022-12-15T15:59:26.848Z,19.13
2022-12-15T16:01:57.872Z,22.42
2022-12-15T16:04:27.687Z,20.80
2022-12-15T16:06:57.014Z,22.33
2022-12-15T16:09:27.262Z,21.50
2022-12-15T16:11:56.654Z,21.20
2022-12-15T16:14:25.901Z,18.45
2022-12-15T16:16:55.634Z,21.20
2022-12-15T16:19:27.702Z,18.60
2022-12-15T16:21:58.015Z,21.00
2022-12-15T16:24:27.251Z,21.98
2022-12-15T16:26:56.960Z,19.23
2022-12-15T16:29:26.263Z,19.25
2022-12-15T16:31:56.087Z,18.45
2022-12-15T16:34:25.509Z,20.10
2022-12-15T16:36:54.782Z,19.13
2022-12-15T16:39:28.376Z,21.40
2022-12-15T16:41:58.470Z,19.27
2022-12-15T16:44:29.293Z,18.88
2022-12-15T16:46:59.114Z,20.77
2022-12-15T16:49:33.830Z,36.88
2022-12-15T16:52:07.481Z,23.05
2022-12-15T16:54:36.733Z,22.67
2022-12-15T16:57:06.320Z,21.60
2022-12-15T16:59:36.276Z,19.23
2022-12-15T17:02:19.557Z,21.05
2022-12-15T17:04:48.994Z,19.65
2022-12-15T17:07:20.524Z,19.90
2022-12-15T17:09:51.266Z,20.58
2022-12-15T17:12:20.827Z,20.92
2022-12-15T17:14:50.077Z,20.98
2022-12-15T17:17:20.659Z,21.05
2022-12-15T17:20:32.637Z,18.92
2022-12-15T17:22:40.238Z,19.55
2022-12-15T17:25:15.296Z,19.50
2022-12-15T17:27:44.946Z,20.75
2022-12-15T17:30:17.895Z,18.90
2022-12-15T17:32:48.379Z,20.70
2022-12-15T17:35:18.536Z,19.77
2022-12-15T17:37:47.841Z,18.30
2022-12-15T17:40:22.247Z,20.05
2022-12-15T17:42:52.234Z,18.30
2022-12-15T17:45:23.473Z,20.85
2022-12-15T17:47:53.805Z,19.00
2022-12-15T17:50:23.391Z,16.77
2022-12-15T17:52:52.676Z,19.55
2022-12-15T17:55:31.735Z,18.95
2022-12-15T17:58:03.979Z,18.70
2022-12-15T18:00:34.347Z,18.52
2022-12-15T18:03:03.790Z,18.30
2022-12-15T18:05:33.727Z,17.58
2022-12-15T18:08:05.264Z,17.88
2022-12-15T18:10:36.136Z,19.47
2022-12-15T18:13:05.467Z,16.88
2022-12-15T18:15:34.929Z,15.27
2022-12-15T18:18:04.256Z,15.68
2022-12-15T18:20:33.535Z,17.35
2022-12-15T18:23:02.827Z,16.17
2022-12-15T18:25:32.463Z,17.00
2022-12-15T18:28:01.713Z,17.13
2022-12-15T18:30:30.939Z,16.50
2022-12-15T18:33:01.478Z,18.15
2022-12-15T18:35:35.353Z,17.92
2022-12-15T18:38:04.737Z,18.92
2022-12-15T18:40:33.986Z,17.85
2022-12-15T18:43:03.258Z,16.95
2022-12-15T18:45:32.492Z,15.32
2022-12-15T18:48:01.806Z,18.70
2022-12-15T18:50:31.077Z,16.63
2022-12-15T18:53:04.218Z,17.77
2022-12-15T18:55:33.918Z,18.13
2022-12-15T18:58:03.225Z,16.45
2022-12-15T19:00:35.342Z,16.95
2022-12-15T19:03:04.771Z,17.83
2022-12-15T19:05:36.280Z,18.92
2022-12-15T19:08:11.639Z,18.85
2022-12-15T19:10:42.915Z,18.05
2022-12-15T19:13:16.350Z,17.17
2022-12-15T19:15:45.960Z,17.38
2022-12-15T19:18:31.558Z,17.48
2022-12-15T19:21:13.376Z,16.95
2022-12-15T19:23:42.605Z,17.45
2022-12-15T19:26:13.387Z,16.90
2022-12-15T19:28:42.579Z,17.55
2022-12-15T19:31:11.820Z,14.43
2022-12-15T19:33:41.062Z,16.55
2022-12-15T19:36:32.320Z,15.35
2022-12-15T19:39:06.332Z,15.13
2022-12-15T19:41:37.349Z,17.17
2022-12-15T19:44:11.865Z,18.33
2022-12-15T19:46:41.247Z,16.92
2022-12-15T19:49:10.731Z,16.30
2022-12-15T19:51:40.205Z,16.83
2022-12-15T19:54:09.397Z,17.17
2022-12-15T19:56:38.705Z,18.52
2022-12-15T19:59:07.973Z,16.63
2022-12-15T20:01:37.316Z,17.73
2022-12-15T20:04:07.327Z,16.92
2022-12-15T20:06:37.328Z,17.08
2022-12-15T20:09:07.190Z,16.35
2022-12-15T20:11:36.830Z,18.70
2022-12-15T20:14:11.944Z,17.05
2022-12-15T20:16:41.612Z,16.73
2022-12-15T20:19:11.020Z,15.95
2022-12-15T20:21:41.092Z,16.55
2022-12-15T20:24:21.498Z,16.80
2022-12-15T20:26:51.132Z,15.43
2022-12-15T20:29:28.304Z,14.70
2022-12-15T20:31:58.088Z,15.38
2022-12-15T20:34:28.143Z,16.98
2022-12-15T20:36:57.748Z,17.08
2022-12-15T20:39:29.493Z,18.38
2022-12-15T20:41:59.571Z,17.13
2022-12-15T20:44:28.826Z,16.00
2022-12-15T20:46:58.085Z,17.15
2022-12-15T20:49:28.283Z,16.45
2022-12-15T20:51:57.577Z,19.23
2022-12-15T20:54:26.803Z,19.20
2022-12-15T20:56:56.305Z,21.77
2022-12-15T20:59:25.634Z,20.75
2022-12-15T21:01:55.330Z,20.77
2022-12-15T21:04:32.763Z,18.85
2022-12-15T21:07:02.050Z,20.20
2022-12-15T21:09:31.314Z,19.92
2022-12-15T21:12:05.782Z,19.60
2022-12-15T21:14:38.938Z,18.73
2022-12-15T21:17:08.390Z,19.65
2022-12-15T21:19:37.739Z,18.45
2022-12-15T21:22:07.468Z,20.02
2022-12-15T21:24:37.512Z,19.88
2022-12-15T21:27:06.878Z,18.27
2022-12-15T21:29:37.230Z,18.05
2022-12-15T21:32:06.447Z,18.20
2022-12-15T21:34:35.717Z,18.95
2022-12-15T21:37:05.733Z,18.10
2022-12-15T21:39:39.755Z,17.73
2022-12-15T21:42:11.352Z,19.55
2022-12-15T21:44:41.669Z,18.08
2022-12-15T21:47:16.885Z,18.52
2022-12-15T21:49:43.573Z,21.05
2022-12-15T21:52:12.967Z,20.65
2022-12-15T21:54:42.163Z,21.77
2022-12-15T21:57:13.769Z,22.75
2022-12-15T21:59:43.570Z,23.50
2022-12-15T22:02:25.299Z,21.38
2022-12-15T22:07:44.198Z,20.05
2022-12-15T22:10:13.692Z,17.00
2022-12-15T22:12:44.603Z,19.13
2022-12-15T22:15:21.482Z,19.90
2022-12-15T22:17:51.547Z,17.08
2022-12-15T22:20:25.512Z,19.50
2022-12-15T22:22:54.775Z,18.35
2022-12-15T22:25:25.838Z,19.13
2022-12-15T22:27:55.320Z,19.58
2022-12-15T22:30:28.877Z,18.17
2022-12-15T22:32:58.131Z,19.33
2022-12-15T22:35:28.757Z,20.15
2022-12-15T22:37:58.049Z,17.58
2022-12-15T22:40:27.707Z,21.13
2022-12-15T22:42:59.207Z,21.38
2022-12-15T22:45:28.503Z,18.93
2022-12-15T22:47:57.783Z,18.45
2022-12-15T22:50:28.320Z,18.52
2022-12-15T22:52:57.576Z,17.50
2022-12-15T22:55:27.071Z,17.80
2022-12-15T22:58:00.731Z,17.50
2022-12-15T23:00:30.012Z,19.75
2022-12-15T23:03:00.070Z,21.77
2022-12-15T23:05:29.510Z,22.80
2022-12-15T23:07:58.753Z,24.75
2022-12-15T23:10:40.431Z,23.75
2022-12-15T23:13:09.869Z,22.97
2022-12-15T23:15:51.786Z,19.77
2022-12-15T23:18:21.109Z,19.98
2022-12-15T23:20:51.718Z,17.83
2022-12-15T23:23:21.040Z,18.77
2022-12-15T23:25:50.392Z,16.92
2022-12-15T23:28:19.696Z,16.38
2022-12-15T23:30:52.893Z,19.63
2022-12-15T23:33:22.407Z,19.42
2022-12-15T23:35:51.869Z,23.55
2022-12-15T23:38:21.416Z,22.60
2022-12-15T23:40:53.057Z,24.48
2022-12-15T23:43:22.865Z,23.77
2022-12-15T23:45:59.564Z,21.98
2022-12-15T23:48:31.553Z,22.98
2022-12-15T23:51:07.851Z,21.65
2022-12-15T23:53:38.165Z,19.20
2022-12-15T23:56:18.164Z,20.02
2022-12-15T23:58:49.106Z,18.02
